Time;durP1;ratioP1;P1;durP2;ratioP2;P2;SDS_P1;SDS_P2;PMS_P1;PMS_P2;Temp;Humidity;BMP_temperature;BMP_pressure;BME280_temperature;BME280_humidity;BME280_pressure;Samples;Min_cycle;Max_cycle;Signal;HPM_P1;HPM_P2
2021/09/27 00:00:06;;;;;;;15.57;13.80;;;;;;;;;;5054741;28;20044;-65
2021/09/27 00:02:33;;;;;;;16.55;14.77;;;;;;;;;;5073553;28;20071;-64
2021/09/27 00:04:58;;;;;;;17.73;14.77;;;;;;;;;;5073587;28;20491;-64
2021/09/27 00:07:24;;;;;;;18.80;16.05;;;;;;;;;;5055436;28;20410;-59
2021/09/27 00:09:49;;;;;;;16.42;13.80;;;;;;;;;;5073415;28;20036;-59
2021/09/27 00:12:15;;;;;;;17.42;14.48;;;;;;;;;;5073257;28;20177;-65
2021/09/27 00:14:41;;;;;;;16.85;15.05;;;;;;;;;;5073244;28;20033;-65
2021/09/27 00:17:07;;;;;;;17.63;14.65;;;;;;;;;;5072914;28;20490;-65
2021/09/27 00:19:35;;;;;;;17.20;15.50;;;;;;;;;;5073104;28;20032;-61
2021/09/27 00:22:00;;;;;;;16.88;14.30;;;;;;;;;;5073095;28;20017;-65
2021/09/27 00:24:27;;;;;;;16.80;13.77;;;;;;;;;;5073247;28;20036;-65
2021/09/27 00:26:52;;;;;;;16.23;13.88;;;;;;;;;;5072960;28;20023;-60
2021/09/27 00:29:18;;;;;;;16.33;14.35;;;;;;;;;;5073092;28;20123;-65
2021/09/27 00:31:43;;;;;;;15.13;13.50;;;;;;;;;;5073442;28;20017;-65
2021/09/27 00:34:10;;;;;;;16.08;13.00;;;;;;;;;;5073338;28;20033;-65
2021/09/27 00:36:35;;;;;;;15.02;13.05;;;;;;;;;;5073169;28;20491;-65
2021/09/27 00:39:01;;;;;;;13.98;12.55;;;;;;;;;;5072969;28;20029;-65
2021/09/27 00:41:26;;;;;;;14.50;12.95;;;;;;;;;;5073227;28;20387;-65
2021/09/27 00:43:52;;;;;;;13.80;12.38;;;;;;;;;;5072510;28;20549;-60
2021/09/27 00:46:20;;;;;;;13.93;11.93;;;;;;;;;;5072874;28;20028;-59
2021/09/27 00:48:46;;;;;;;15.40;11.23;;;;;;;;;;5055188;28;20525;-60
2021/09/27 00:51:20;;;;;;;14.23;12.73;;;;;;;;;;5054737;28;20108;-60
2021/09/27 00:53:46;;;;;;;15.73;12.73;;;;;;;;;;5072942;28;20038;-60
2021/09/27 00:56:14;;;;;;;15.60;13.40;;;;;;;;;;5073179;28;20380;-66
2021/09/27 00:58:39;;;;;;;14.95;13.30;;;;;;;;;;5082605;28;20107;-60
2021/09/27 01:01:05;;;;;;;17.27;13.15;;;;;;;;;;5092896;28;20111;-60
2021/09/27 01:03:31;;;;;;;14.10;12.65;;;;;;;;;;5092924;28;20031;-60
2021/09/27 01:06:06;;;;;;;16.42;13.15;;;;;;;;;;5092934;28;20098;-60
2021/09/27 01:08:38;;;;;;;14.25;12.85;;;;;;;;;;5093153;28;20028;-60
2021/09/27 01:11:25;;;;;;;14.68;13.13;;;;;;;;;;5075505;28;20070;-60
2021/09/27 01:14:11;;;;;;;13.52;12.10;;;;;;;;;;5096753;28;20035;-59
2021/09/27 01:16:43;;;;;;;15.45;12.85;;;;;;;;;;5044748;28;20036;-60
2021/09/27 01:19:25;;;;;;;13.95;12.43;;;;;;;;;;5096421;28;20028;-65
2021/09/27 01:21:59;;;;;;;16.35;14.52;;;;;;;;;;5096382;28;20049;-60
2021/09/27 01:24:30;;;;;;;14.20;12.52;;;;;;;;;;5096461;28;20043;-60
2021/09/27 01:27:15;;;;;;;13.63;12.20;;;;;;;;;;5078521;28;20038;-60
2021/09/27 01:29:43;;;;;;;15.95;12.90;;;;;;;;;;5078015;28;20119;-60
2021/09/27 01:32:15;;;;;;;15.27;12.85;;;;;;;;;;5096038;28;20153;-59
2021/09/27 01:35:00;;;;;;;14.15;12.65;;;;;;;;;;5096228;28;20040;-59
2021/09/27 01:37:26;;;;;;;14.75;12.77;;;;;;;;;;5077501;28;20113;-59
2021/09/27 01:40:06;;;;;;;14.45;12.98;;;;;;;;;;5095951;28;20082;-60
2021/09/27 01:42:38;;;;;;;16.15;13.65;;;;;;;;;;5095782;28;20372;-59
2021/09/27 01:45:11;;;;;;;15.43;13.30;;;;;;;;;;5095805;28;20107;-60
2021/09/27 01:47:44;;;;;;;14.30;12.77;;;;;;;;;;5078183;28;20031;-59
2021/09/27 01:50:14;;;;;;;18.45;13.82;;;;;;;;;;5095897;28;20024;-59
2021/09/27 01:52:44;;;;;;;16.13;12.97;;;;;;;;;;5096137;28;20376;-60
2021/09/27 01:55:25;;;;;;;15.20;13.52;;;;;;;;;;5096152;28;20532;-60
2021/09/27 01:58:03;;;;;;;15.57;12.57;;;;;;;;;;5095430;28;20063;-60
2021/09/27 02:00:34;;;;;;;17.85;13.20;;;;;;;;;;5095925;28;20034;-60
2021/09/27 02:03:04;;;;;;;17.50;14.70;;;;;;;;;;5095556;28;20035;-59
2021/09/27 02:05:47;;;;;;;17.13;14.15;;;;;;;;;;5095748;28;20463;-60
2021/09/27 02:08:24;;;;;;;19.17;13.95;;;;;;;;;;5077363;28;20020;-60
2021/09/27 02:10:53;;;;;;;15.68;13.25;;;;;;;;;;5095738;28;20419;-60
2021/09/27 02:13:24;;;;;;;17.15;14.02;;;;;;;;;;5095771;28;20016;-59
2021/09/27 02:16:10;;;;;;;14.43;12.02;;;;;;;;;;5095486;28;20109;-59
2021/09/27 02:18:38;;;;;;;17.60;13.23;;;;;;;;;;5095033;28;20186;-59
2021/09/27 02:21:14;;;;;;;15.90;12.75;;;;;;;;;;5095198;28;20070;-59
2021/09/27 02:23:46;;;;;;;17.13;12.75;;;;;;;;;;5094575;28;20027;-59
2021/09/27 02:26:14;;;;;;;15.48;12.95;;;;;;;;;;5095378;28;20115;-65
2021/09/27 02:28:40;;;;;;;16.70;13.32;;;;;;;;;;5095601;28;20012;-64
2021/09/27 02:31:06;;;;;;;16.88;13.18;;;;;;;;;;5077032;28;20107;-65
2021/09/27 02:33:49;;;;;;;16.48;13.30;;;;;;;;;;5094716;28;20097;-65
2021/09/27 02:36:18;;;;;;;17.63;13.70;;;;;;;;;;5095086;28;20032;-66
2021/09/27 02:38:53;;;;;;;19.25;13.90;;;;;;;;;;5095201;28;20024;-65
2021/09/27 02:41:31;;;;;;;18.05;13.77;;;;;;;;;;5095617;28;20100;-65
2021/09/27 02:43:56;;;;;;;17.27;13.85;;;;;;;;;;5095342;28;20097;-65
2021/09/27 02:46:23;;;;;;;19.70;14.27;;;;;;;;;;5077316;28;20060;-65
2021/09/27 02:48:57;;;;;;;17.58;14.35;;;;;;;;;;5094703;28;20050;-65
2021/09/27 02:51:23;;;;;;;20.38;15.10;;;;;;;;;;5095091;28;20035;-59
2021/09/27 02:53:49;;;;;;;20.80;15.55;;;;;;;;;;5094778;28;20020;-59
2021/09/27 02:56:23;;;;;;;20.98;15.80;;;;;;;;;;5094736;28;20110;-64
2021/09/27 02:58:50;;;;;;;20.17;15.73;;;;;;;;;;5081916;28;20059;-60
2021/09/27 03:01:18;;;;;;;15.73;13.60;;;;;;;;;;5074216;28;20058;-60
2021/09/27 03:04:05;;;;;;;18.30;14.48;;;;;;;;;;5074101;28;20520;-60
2021/09/27 03:06:36;;;;;;;20.90;15.10;;;;;;;;;;5074133;28;20043;-60
2021/09/27 03:09:04;;;;;;;20.35;15.35;;;;;;;;;;5074366;28;20067;-60
2021/09/27 03:11:39;;;;;;;21.55;15.73;;;;;;;;;;5074225;28;20079;-60
2021/09/27 03:14:14;;;;;;;21.90;16.17;;;;;;;;;;5074084;28;20028;-59
2021/09/27 03:16:58;;;;;;;18.67;15.48;;;;;;;;;;5056246;28;20041;-60
2021/09/27 03:19:44;;;;;;;19.42;15.55;;;;;;;;;;5073509;28;20125;-60
2021/09/27 03:22:24;;;;;;;22.92;15.35;;;;;;;;;;5073462;28;20029;-60
2021/09/27 03:25:29;;;;;;;17.17;12.63;;;;;;;;;;5055937;28;20387;-59
2021/09/27 03:27:54;;;;;;;20.85;15.02;;;;;;;;;;4972962;28;20110;-64
2021/09/27 03:30:42;;;;;;;17.75;13.90;;;;;;;;;;4973170;28;20173;-64
2021/09/27 03:33:20;;;;;;;18.15;14.70;;;;;;;;;;5017070;28;20048;-64
2021/09/27 03:35:49;;;;;;;21.23;16.30;;;;;;;;;;5073494;28;20028;-64
2021/09/27 03:38:15;;;;;;;20.73;14.50;;;;;;;;;;5073506;28;20543;-64
2021/09/27 03:40:59;;;;;;;17.85;14.55;;;;;;;;;;5073683;28;20029;-64
2021/09/27 03:43:43;;;;;;;22.17;15.40;;;;;;;;;;5073673;28;20055;-64
2021/09/27 03:46:22;;;;;;;15.80;11.30;;;;;;;;;;5055724;28;20029;-59
2021/09/27 03:49:00;;;;;;;19.52;14.52;;;;;;;;;;5073701;28;20474;-57
2021/09/27 03:51:29;;;;;;;17.77;13.63;;;;;;;;;;5073773;28;20095;-59
2021/09/27 03:54:15;;;;;;;15.80;13.32;;;;;;;;;;5055728;28;20059;-59
2021/09/27 03:56:51;;;;;;;19.13;14.30;;;;;;;;;;5059640;28;20506;-65
2021/09/27 03:59:37;;;;;;;18.90;14.60;;;;;;;;;;5085972;28;20036;-60
2021/09/27 04:02:08;;;;;;;18.77;14.27;;;;;;;;;;5091129;28;20016;-59
2021/09/27 04:04:46;;;;;;;19.88;15.00;;;;;;;;;;5093144;28;20588;-60
2021/09/27 04:07:17;;;;;;;21.40;17.15;;;;;;;;;;5073024;28;20021;-59
2021/09/27 04:09:42;;;;;;;19.80;15.35;;;;;;;;;;5073230;28;20472;-59
2021/09/27 04:12:19;;;;;;;21.65;15.68;;;;;;;;;;5073258;28;20023;-59
2021/09/27 04:14:53;;;;;;;24.40;16.35;;;;;;;;;;5073232;28;20480;-59
2021/09/27 04:17:22;;;;;;;23.15;15.38;;;;;;;;;;5073252;28;20028;-59
2021/09/27 04:19:58;;;;;;;19.17;14.65;;;;;;;;;;5073089;28;20073;-59
2021/09/27 04:22:41;;;;;;;19.67;14.88;;;;;;;;;;5073497;28;20028;-59
2021/09/27 04:25:09;;;;;;;22.20;15.02;;;;;;;;;;5089111;28;20522;-64
2021/09/27 04:27:46;;;;;;;17.30;14.00;;;;;;;;;;5093460;28;20373;-64
2021/09/27 04:30:31;;;;;;;16.95;14.18;;;;;;;;;;5093510;28;20337;-64
2021/09/27 04:33:15;;;;;;;18.05;14.93;;;;;;;;;;5093303;28;20040;-64
2021/09/27 04:36:11;;;;;;;17.58;13.65;;;;;;;;;;5093230;28;20067;-65
2021/09/27 04:38:37;;;;;;;16.30;13.38;;;;;;;;;;5002818;28;20046;-65
2021/09/27 04:41:22;;;;;;;15.10;12.82;;;;;;;;;;5075194;28;20020;-64
2021/09/27 04:44:16;;;;;;;14.48;12.95;;;;;;;;;;5092908;28;20047;-65
2021/09/27 04:46:52;;;;;;;14.27;12.23;;;;;;;;;;5094979;28;20028;-65
2021/09/27 04:49:18;;;;;;;13.25;11.27;;;;;;;;;;5097194;28;20038;-66
2021/09/27 04:52:05;;;;;;;14.68;11.38;;;;;;;;;;5097121;28;20424;-65
2021/09/27 04:54:47;;;;;;;13.18;11.32;;;;;;;;;;5097297;28;20039;-65
2021/09/27 04:57:26;;;;;;;14.90;12.75;;;;;;;;;;5097248;28;20088;-65
2021/09/27 05:00:01;;;;;;;14.90;12.60;;;;;;;;;;5096432;28;20046;-66
2021/09/27 05:02:30;;;;;;;14.77;12.80;;;;;;;;;;5096799;28;20480;-65
2021/09/27 05:05:21;;;;;;;15.05;12.18;;;;;;;;;;5097201;28;20020;-65
2021/09/27 05:08:11;;;;;;;14.70;12.07;;;;;;;;;;5085048;28;20044;-65
2021/09/27 05:10:56;;;;;;;14.13;11.13;;;;;;;;;;5097135;28;20047;-65
2021/09/27 05:13:24;;;;;;;13.23;11.35;;;;;;;;;;5096849;28;20043;-65
2021/09/27 05:16:01;;;;;;;12.32;10.57;;;;;;;;;;5096311;28;20027;-65
2021/09/27 05:18:28;;;;;;;12.80;11.38;;;;;;;;;;5096142;28;20031;-66
2021/09/27 05:21:03;;;;;;;12.23;10.50;;;;;;;;;;5096380;28;20036;-63
2021/09/27 05:23:29;;;;;;;12.65;10.98;;;;;;;;;;5096453;28;20460;-63
2021/09/27 05:26:12;;;;;;;13.65;11.93;;;;;;;;;;5096481;28;20079;-64
2021/09/27 05:28:45;;;;;;;12.93;10.80;;;;;;;;;;5096218;28;20020;-63
2021/09/27 05:31:30;;;;;;;12.27;10.90;;;;;;;;;;5096143;28;20389;-63
2021/09/27 05:34:14;;;;;;;12.82;11.38;;;;;;;;;;5078664;28;20032;-63
2021/09/27 05:36:46;;;;;;;12.90;11.52;;;;;;;;;;5096284;28;20051;-63
2021/09/27 05:42:08;;;;;;;13.85;11.52;;;;;;;;;;5096014;28;20036;-63
2021/09/27 05:44:41;;;;;;;14.63;12.95;;;;;;;;;;5095987;28;20024;-64
2021/09/27 05:47:06;;;;;;;16.08;12.18;;;;;;;;;;5095745;28;20118;-63
2021/09/27 05:49:51;;;;;;;14.98;11.40;;;;;;;;;;5095676;28;20098;-63
2021/09/27 05:52:46;;;;;;;13.57;11.98;;;;;;;;;;5095825;28;20040;-61
2021/09/27 05:55:11;;;;;;;12.15;10.85;;;;;;;;;;5006163;28;20082;-64
2021/09/27 05:57:37;;;;;;;14.50;10.30;;;;;;;;;;5093645;28;20020;-63
2021/09/27 06:00:11;;;;;;;13.10;10.77;;;;;;;;;;5094762;28;20036;-64
2021/09/27 06:02:37;;;;;;;14.57;10.70;;;;;;;;;;5095095;28;20491;-64
2021/09/27 06:05:02;;;;;;;12.05;10.23;;;;;;;;;;5095315;28;20048;-64
2021/09/27 06:07:29;;;;;;;15.82;11.25;;;;;;;;;;5095538;28;20046;-64
2021/09/27 06:10:00;;;;;;;12.75;11.27;;;;;;;;;;5095549;28;20032;-64
2021/09/27 06:12:26;;;;;;;12.65;10.63;;;;;;;;;;5095143;28;20522;-64
2021/09/27 06:14:58;;;;;;;14.45;10.65;;;;;;;;;;5095368;28;20032;-64
2021/09/27 06:17:33;;;;;;;14.55;10.55;;;;;;;;;;5095556;28;20024;-63
2021/09/27 06:20:08;;;;;;;14.00;10.80;;;;;;;;;;5094928;28;20067;-63
2021/09/27 06:22:37;;;;;;;14.50;12.15;;;;;;;;;;5095570;28;20036;-64
2021/09/27 06:25:02;;;;;;;11.60;9.90;;;;;;;;;;5095362;28;20031;-64
2021/09/27 06:27:40;;;;;;;13.95;11.13;;;;;;;;;;5095239;28;20024;-64
2021/09/27 06:30:24;;;;;;;14.95;10.90;;;;;;;;;;5094917;28;20028;-64
2021/09/27 06:32:53;;;;;;;13.30;10.55;;;;;;;;;;5094900;28;20078;-64
2021/09/27 06:35:22;;;;;;;16.52;12.10;;;;;;;;;;5095140;28;20031;-64
2021/09/27 06:37:48;;;;;;;15.57;11.05;;;;;;;;;;5095260;28;20024;-64
2021/09/27 06:40:13;;;;;;;12.57;10.48;;;;;;;;;;5094815;28;20460;-64
2021/09/27 06:42:39;;;;;;;16.50;14.32;;;;;;;;;;5095228;28;20081;-64
2021/09/27 06:45:06;;;;;;;12.65;10.45;;;;;;;;;;5094699;28;20024;-64
2021/09/27 06:47:31;;;;;;;16.35;11.25;;;;;;;;;;5094894;28;20065;-64
2021/09/27 06:49:57;;;;;;;14.05;11.00;;;;;;;;;;5094869;28;20088;-64
2021/09/27 06:52:23;;;;;;;13.55;11.32;;;;;;;;;;5095250;28;20039;-64
2021/09/27 06:54:49;;;;;;;13.77;11.35;;;;;;;;;;5094666;28;20020;-64
2021/09/27 06:57:15;;;;;;;14.57;11.57;;;;;;;;;;5094550;28;20372;-64
2021/09/27 06:59:40;;;;;;;15.15;11.68;;;;;;;;;;5094381;28;20043;-64
2021/09/27 07:02:06;;;;;;;14.38;11.05;;;;;;;;;;5094706;28;20032;-64
2021/09/27 07:04:32;;;;;;;13.65;10.88;;;;;;;;;;5094316;28;20024;-64
2021/09/27 07:06:57;;;;;;;16.30;11.52;;;;;;;;;;5093907;28;20031;-64
2021/09/27 07:09:23;;;;;;;13.70;10.82;;;;;;;;;;5093827;28;20036;-64
2021/09/27 07:11:49;;;;;;;13.57;11.05;;;;;;;;;;5094605;28;20032;-64
2021/09/27 07:14:15;;;;;;;12.98;11.10;;;;;;;;;;5094366;28;20028;-64
2021/09/27 07:16:41;;;;;;;16.20;11.30;;;;;;;;;;5094499;28;20460;-67
2021/09/27 07:19:08;;;;;;;13.27;10.70;;;;;;;;;;5093921;28;20027;-69
2021/09/27 07:21:34;;;;;;;14.27;10.40;;;;;;;;;;5094251;28;20579;-63
2021/09/27 07:24:00;;;;;;;15.15;10.27;;;;;;;;;;5094134;28;20051;-63
2021/09/27 07:26:27;;;;;;;12.02;9.63;;;;;;;;;;5094282;28;20035;-63
2021/09/27 07:28:53;;;;;;;12.15;10.35;;;;;;;;;;5094327;28;20020;-63
2021/09/27 07:31:20;;;;;;;12.23;10.55;;;;;;;;;;5075939;28;20024;-63
2021/09/27 07:33:46;;;;;;;13.77;10.38;;;;;;;;;;5093835;28;20016;-62
2021/09/27 07:36:12;;;;;;;14.18;10.20;;;;;;;;;;5094185;28;20093;-63
2021/09/27 07:38:38;;;;;;;13.68;10.00;;;;;;;;;;5094301;28;20016;-63
2021/09/27 07:41:04;;;;;;;12.88;9.98;;;;;;;;;;5093789;28;20139;-63
2021/09/27 07:43:30;;;;;;;14.93;10.77;;;;;;;;;;5093739;28;20020;-63
2021/09/27 07:45:55;;;;;;;15.98;11.85;;;;;;;;;;5093973;28;20016;-62
2021/09/27 07:48:21;;;;;;;16.40;10.75;;;;;;;;;;5093580;28;20043;-63
2021/09/27 07:50:48;;;;;;;14.25;12.15;;;;;;;;;;5093562;28;20078;-63
2021/09/27 07:53:15;;;;;;;15.18;10.60;;;;;;;;;;5093692;28;20050;-63
2021/09/27 07:55:41;;;;;;;16.35;10.82;;;;;;;;;;5093585;28;20028;-63
2021/09/27 07:58:06;;;;;;;17.55;11.75;;;;;;;;;;5075342;28;20064;-63
2021/09/27 08:00:33;;;;;;;19.55;12.50;;;;;;;;;;5093444;28;20494;-63
2021/09/27 08:02:58;;;;;;;17.88;12.70;;;;;;;;;;5093887;28;20114;-63
2021/09/27 08:05:29;;;;;;;16.77;11.82;;;;;;;;;;5093549;28;20117;-64
2021/09/27 08:07:55;;;;;;;18.33;12.05;;;;;;;;;;5093328;28;20447;-63
2021/09/27 08:10:21;;;;;;;16.55;12.88;;;;;;;;;;5093143;28;20016;-63
2021/09/27 08:12:47;;;;;;;17.67;11.13;;;;;;;;;;5075023;28;20404;-63
2021/09/27 08:15:14;;;;;;;19.20;13.23;;;;;;;;;;5093044;28;20024;-63
2021/09/27 08:17:40;;;;;;;16.33;11.48;;;;;;;;;;5092205;28;20027;-63
2021/09/27 08:20:07;;;;;;;14.43;12.20;;;;;;;;;;5092832;28;20107;-63
2021/09/27 08:22:33;;;;;;;16.60;11.45;;;;;;;;;;5097419;28;20086;-71
2021/09/27 08:25:00;;;;;;;14.55;11.73;;;;;;;;;;5079735;28;20012;-71
2021/09/27 08:27:26;;;;;;;17.05;11.38;;;;;;;;;;5097818;28;20024;-71
2021/09/27 08:29:52;;;;;;;15.85;11.23;;;;;;;;;;5097695;28;20089;-71
2021/09/27 08:32:20;;;;;;;12.95;10.77;;;;;;;;;;5097652;28;20024;-71
2021/09/27 08:34:49;;;;;;;27.92;16.77;;;;;;;;;;5097433;28;20020;-71
2021/09/27 08:37:15;;;;;;;16.08;12.45;;;;;;;;;;5097410;28;20115;-71
2021/09/27 08:39:41;;;;;;;13.98;10.75;;;;;;;;;;5097294;28;20119;-71
2021/09/27 08:42:15;;;;;;;13.95;11.52;;;;;;;;;;5097153;28;20437;-70
2021/09/27 08:45:02;;;;;;;16.83;10.95;;;;;;;;;;5097145;28;20088;-70
2021/09/27 08:47:40;;;;;;;13.68;11.02;;;;;;;;;;5097589;28;20066;-62
2021/09/27 08:50:08;;;;;;;22.05;12.38;;;;;;;;;;5097116;28;20054;-67
2021/09/27 08:52:39;;;;;;;19.95;11.43;;;;;;;;;;5097030;28;20020;-67
2021/09/27 08:55:06;;;;;;;13.80;9.85;;;;;;;;;;5096876;28;20028;-67
2021/09/27 08:57:34;;;;;;;14.85;11.02;;;;;;;;;;5096763;28;20016;-67
2021/09/27 09:00:02;;;;;;;15.13;12.00;;;;;;;;;;5096450;28;20047;-67
2021/09/27 09:02:40;;;;;;;12.48;10.27;;;;;;;;;;5078565;28;20448;-67
2021/09/27 09:05:09;;;;;;;15.45;10.88;;;;;;;;;;5096623;28;20380;-67
2021/09/27 09:07:39;;;;;;;15.30;11.63;;;;;;;;;;5096550;28;20501;-67
2021/09/27 09:10:05;;;;;;;;;;;;;;;;;;5096891;28;20491;-67
2021/09/27 09:12:33;;;;;;;13.32;11.38;;;;;;;;;;5096705;28;19911;-67
2021/09/27 09:15:06;;;;;;;16.13;11.45;;;;;;;;;;5096638;28;20028;-67
2021/09/27 09:17:35;;;;;;;13.82;11.48;;;;;;;;;;5096507;28;20032;-67
2021/09/27 09:20:05;;;;;;;15.43;11.88;;;;;;;;;;5096556;28;20061;-67
2021/09/27 09:22:31;;;;;;;;;;;;;;;;;;5096668;28;20031;-67
2021/09/27 09:24:57;;;;;;;16.55;11.55;;;;;;;;;;5096437;28;19904;-67
2021/09/27 09:27:23;;;;;;;13.75;11.73;;;;;;;;;;5096267;28;20097;-67
2021/09/27 09:29:48;;;;;;;17.10;13.02;;;;;;;;;;5096413;28;20530;-65
2021/09/27 09:32:14;;;;;;;18.70;13.65;;;;;;;;;;5096099;28;20030;-65
2021/09/27 09:34:40;;;;;;;17.15;13.07;;;;;;;;;;5096255;28;20024;-65
2021/09/27 09:37:21;;;;;;;16.00;12.35;;;;;;;;;;5095829;28;20067;-65
2021/09/27 09:39:52;;;;;;;15.98;11.63;;;;;;;;;;5095844;28;20122;-65
2021/09/27 09:42:18;;;;;;;14.43;11.60;;;;;;;;;;5096168;28;20031;-65
2021/09/27 09:44:45;;;;;;;11.80;10.07;;;;;;;;;;5095902;28;20016;-66
2021/09/27 09:47:13;;;;;;;15.15;10.80;;;;;;;;;;5095876;28;20082;-65
2021/09/27 09:50:17;;;;;;;11.57;9.40;;;;;;;;;;5095653;28;20016;-65
2021/09/27 09:52:53;;;;;;;14.45;11.23;;;;;;;;;;4994051;28;20117;-65
2021/09/27 09:55:37;;;;;;;10.57;9.27;;;;;;;;;;4994120;28;20113;-66
2021/09/27 09:58:08;;;;;;;18.38;12.73;;;;;;;;;;5057876;28;20025;-66
2021/09/27 10:00:33;;;;;;;12.55;10.02;;;;;;;;;;5075260;28;20028;-65
2021/09/27 10:02:59;;;;;;;15.50;12.38;;;;;;;;;;5075639;28;20361;-65
2021/09/27 10:05:30;;;;;;;16.83;12.50;;;;;;;;;;5075451;28;20024;-65
2021/09/27 10:07:57;;;;;;;16.52;13.23;;;;;;;;;;5075343;28;20469;-64
2021/09/27 10:10:31;;;;;;;13.65;12.10;;;;;;;;;;5075507;28;20082;-65
2021/09/27 10:12:57;;;;;;;15.57;12.50;;;;;;;;;;5075384;28;20082;-65
2021/09/27 10:15:26;;;;;;;16.70;12.10;;;;;;;;;;5075178;28;20114;-65
2021/09/27 10:18:00;;;;;;;15.60;11.25;;;;;;;;;;5057206;28;20021;-65
2021/09/27 10:20:32;;;;;;;14.05;9.98;;;;;;;;;;5075264;28;20116;-65
2021/09/27 10:23:04;;;;;;;12.55;10.57;;;;;;;;;;5074929;28;20488;-65
2021/09/27 10:25:30;;;;;;;14.77;10.38;;;;;;;;;;5075118;28;20138;-65
2021/09/27 10:27:58;;;;;;;11.38;10.20;;;;;;;;;;5074776;28;20511;-64
2021/09/27 10:30:40;;;;;;;11.88;8.82;;;;;;;;;;5074712;28;20036;-65
2021/09/27 10:33:20;;;;;;;15.10;9.60;;;;;;;;;;5074758;28;20044;-65
2021/09/27 10:35:51;;;;;;;12.85;10.63;;;;;;;;;;5074784;28;20491;-65
2021/09/27 10:38:19;;;;;;;13.25;10.25;;;;;;;;;;5074908;28;20060;-65
2021/09/27 10:40:46;;;;;;;12.80;9.15;;;;;;;;;;5074633;28;20115;-65
2021/09/27 10:43:14;;;;;;;14.60;9.80;;;;;;;;;;5073985;28;20039;-66
2021/09/27 10:45:41;;;;;;;9.55;8.65;;;;;;;;;;5074698;28;20048;-66
2021/09/27 10:48:07;;;;;;;8.77;7.22;;;;;;;;;;5056474;28;20429;-66
2021/09/27 10:50:35;;;;;;;7.82;6.97;;;;;;;;;;5074263;28;20044;-65
2021/09/27 10:53:04;;;;;;;8.98;7.72;;;;;;;;;;5074560;28;20039;-65
2021/09/27 10:55:44;;;;;;;8.15;7.35;;;;;;;;;;5074424;28;20032;-65
2021/09/27 10:58:09;;;;;;;;;;;;;;;;;;5078300;28;20126;-65
2021/09/27 11:00:47;;;;;;;10.00;7.95;;;;;;;;;;5094727;28;20010;-66
2021/09/27 11:03:13;;;;;;;7.90;7.18;;;;;;;;;;5094681;28;20043;-65
2021/09/27 11:05:48;;;;;;;8.07;7.25;;;;;;;;;;5094467;28;20472;-66
2021/09/27 11:08:15;;;;;;;9.20;7.80;;;;;;;;;;5094238;28;20028;-66
2021/09/27 11:10:49;;;;;;;7.50;6.78;;;;;;;;;;5094218;28;20020;-65
2021/09/27 11:13:33;;;;;;;11.70;7.60;;;;;;;;;;5094119;28;20098;-65
2021/09/27 11:16:00;;;;;;;7.35;6.65;;;;;;;;;;5094093;28;20458;-64
2021/09/27 11:18:27;;;;;;;9.30;7.78;;;;;;;;;;5094279;28;20107;-64
2021/09/27 11:21:02;;;;;;;7.13;6.32;;;;;;;;;;5093973;28;20056;-64
2021/09/27 11:23:30;;;;;;;7.95;7.22;;;;;;;;;;5094163;28;20024;-65
2021/09/27 11:26:31;;;;;;;8.52;6.75;;;;;;;;;;5093816;28;20016;-65
2021/09/27 11:29:19;;;;;;;7.65;6.85;;;;;;;;;;4992595;28;20034;-64
2021/09/27 11:31:45;;;;;;;8.43;7.32;;;;;;;;;;5088615;28;20038;-65
2021/09/27 11:34:30;;;;;;;8.07;7.25;;;;;;;;;;5093861;28;20425;-65
2021/09/27 11:37:22;;;;;;;8.68;7.00;;;;;;;;;;5093833;28;20032;-66
2021/09/27 11:39:48;;;;;;;8.65;6.85;;;;;;;;;;5088619;28;20059;-65
2021/09/27 11:42:19;;;;;;;9.27;6.65;;;;;;;;;;5093906;28;20019;-64
2021/09/27 11:44:54;;;;;;;7.63;6.80;;;;;;;;;;5093929;28;20111;-65
2021/09/27 11:47:30;;;;;;;7.47;6.78;;;;;;;;;;5093727;28;20031;-64
2021/09/27 11:50:10;;;;;;;8.18;6.90;;;;;;;;;;5093731;28;20023;-65
2021/09/27 11:52:47;;;;;;;8.88;7.05;;;;;;;;;;5093964;28;20115;-65
2021/09/27 11:55:26;;;;;;;8.25;7.40;;;;;;;;;;5093642;28;20059;-72
2021/09/27 11:58:17;;;;;;;7.13;6.22;;;;;;;;;;5092041;28;20039;-72
2021/09/27 12:01:21;;;;;;;8.00;6.20;;;;;;;;;;5073233;28;20036;-66
2021/09/27 12:04:09;;;;;;;7.97;6.78;;;;;;;;;;4972639;28;20035;-66
2021/09/27 12:06:39;;;;;;;8.25;7.38;;;;;;;;;;4964812;28;20041;-66
2021/09/27 12:09:08;;;;;;;8.63;6.88;;;;;;;;;;5037264;28;20155;-66
2021/09/27 12:11:45;;;;;;;9.65;6.75;;;;;;;;;;5073258;28;20029;-66
2021/09/27 12:14:17;;;;;;;7.88;6.82;;;;;;;;;;5073187;28;20056;-66
2021/09/27 12:16:44;;;;;;;8.05;7.22;;;;;;;;;;5073218;28;20047;-66
2021/09/27 12:19:15;;;;;;;7.30;6.60;;;;;;;;;;5073336;28;20016;-66
2021/09/27 12:21:46;;;;;;;6.43;5.72;;;;;;;;;;5072911;28;20059;-66
2021/09/27 12:24:19;;;;;;;7.13;6.43;;;;;;;;;;5072939;28;20040;-66
2021/09/27 12:26:50;;;;;;;10.73;6.35;;;;;;;;;;5072985;28;20035;-66
2021/09/27 12:29:26;;;;;;;6.03;5.40;;;;;;;;;;5073184;28;20488;-66
2021/09/27 12:31:56;;;;;;;7.45;5.97;;;;;;;;;;5055180;28;20029;-66
2021/09/27 12:34:26;;;;;;;7.63;6.47;;;;;;;;;;5072776;28;20037;-66
2021/09/27 12:36:52;;;;;;;7.35;5.82;;;;;;;;;;5073371;28;20033;-66
2021/09/27 12:39:22;;;;;;;7.78;6.30;;;;;;;;;;5073027;28;20068;-66
2021/09/27 12:41:48;;;;;;;7.97;6.22;;;;;;;;;;5073261;28;20025;-66
2021/09/27 12:44:16;;;;;;;7.88;6.30;;;;;;;;;;5072917;28;20487;-66
2021/09/27 12:46:43;;;;;;;7.03;5.63;;;;;;;;;;5038566;28;20487;-66
2021/09/27 12:49:10;;;;;;;8.55;7.07;;;;;;;;;;5073136;28;20017;-66
2021/09/27 12:51:44;;;;;;;9.23;6.97;;;;;;;;;;5072971;28;20017;-66
2021/09/27 12:54:19;;;;;;;10.25;7.47;;;;;;;;;;5054836;28;20039;-66
2021/09/27 12:56:44;;;;;;;18.52;9.30;;;;;;;;;;5072712;28;20043;-66
2021/09/27 12:59:13;;;;;;;12.55;9.25;;;;;;;;;;5084163;28;20495;-66
2021/09/27 13:01:43;;;;;;;9.35;7.30;;;;;;;;;;5092778;28;20024;-66
2021/09/27 13:04:13;;;;;;;11.77;8.82;;;;;;;;;;5092835;28;20028;-66
2021/09/27 13:06:53;;;;;;;10.13;8.27;;;;;;;;;;5093190;28;20048;-66
2021/09/27 13:09:20;;;;;;;7.95;7.20;;;;;;;;;;5096571;28;20109;-66
2021/09/27 13:11:51;;;;;;;9.25;7.65;;;;;;;;;;5078424;28;20031;-66
2021/09/27 13:14:17;;;;;;;7.15;6.25;;;;;;;;;;5096642;28;20499;-66
2021/09/27 13:16:45;;;;;;;8.30;5.35;;;;;;;;;;5078219;28;20383;-67
2021/09/27 13:19:11;;;;;;;7.57;6.90;;;;;;;;;;5096724;28;20368;-66
2021/09/27 13:21:45;;;;;;;7.10;6.40;;;;;;;;;;5096253;28;20471;-67
2021/09/27 13:24:13;;;;;;;10.38;8.60;;;;;;;;;;5096232;28;20060;-67
2021/09/27 13:26:44;;;;;;;7.90;6.65;;;;;;;;;;5096289;28;20018;-66
2021/09/27 13:29:31;;;;;;;5.40;5.00;;;;;;;;;;5095874;28;20502;-67
2021/09/27 13:32:14;;;;;;;6.93;6.20;;;;;;;;;;5078909;28;20063;-66
2021/09/27 13:34:47;;;;;;;9.73;6.63;;;;;;;;;;5096556;28;20024;-66
2021/09/27 13:37:32;;;;;;;8.02;6.70;;;;;;;;;;5096159;28;20039;-69
2021/09/27 13:39:59;;;;;;;8.88;6.80;;;;;;;;;;5096312;28;20044;-70
2021/09/27 13:42:36;;;;;;;7.25;6.55;;;;;;;;;;5096432;28;20036;-70
2021/09/27 13:45:03;;;;;;;6.18;5.60;;;;;;;;;;5095963;28;20039;-70
2021/09/27 13:47:29;;;;;;;6.72;6.07;;;;;;;;;;5095874;28;20095;-69
2021/09/27 13:49:54;;;;;;;6.03;5.53;;;;;;;;;;5094883;28;20034;-69
2021/09/27 13:52:24;;;;;;;8.38;6.50;;;;;;;;;;5095032;28;20012;-70
2021/09/27 13:54:50;;;;;;;5.50;5.00;;;;;;;;;;5095937;28;20036;-70
2021/09/27 13:57:15;;;;;;;6.40;5.82;;;;;;;;;;5095828;28;20126;-70
2021/09/27 13:59:44;;;;;;;6.43;5.72;;;;;;;;;;5095455;28;20040;-70
2021/09/27 14:02:10;;;;;;;8.90;6.10;;;;;;;;;;5095831;28;20436;-69
2021/09/27 14:04:35;;;;;;;7.18;5.63;;;;;;;;;;5095645;28;20063;-69
2021/09/27 14:07:00;;;;;;;8.50;6.18;;;;;;;;;;5095636;28;20024;-70
2021/09/27 14:09:26;;;;;;;7.43;6.72;;;;;;;;;;5095408;28;20119;-69
2021/09/27 14:11:52;;;;;;;9.60;6.78;;;;;;;;;;5095461;28;20020;-69
2021/09/27 14:14:18;;;;;;;8.35;6.93;;;;;;;;;;5095379;28;20043;-70
2021/09/27 14:16:44;;;;;;;10.88;7.55;;;;;;;;;;5077194;28;20024;-70
2021/09/27 14:19:10;;;;;;;7.72;5.93;;;;;;;;;;5094152;28;20040;-69
2021/09/27 14:21:35;;;;;;;6.75;6.10;;;;;;;;;;5094887;28;20012;-70
2021/09/27 14:24:01;;;;;;;9.43;6.80;;;;;;;;;;5076877;28;20605;-69
2021/09/27 14:26:28;;;;;;;7.82;6.50;;;;;;;;;;5095196;28;20016;-69
2021/09/27 14:28:54;;;;;;;9.25;7.80;;;;;;;;;;5077036;28;20016;-70
2021/09/27 14:31:20;;;;;;;9.20;7.43;;;;;;;;;;5095002;28;20424;-70
2021/09/27 14:33:46;;;;;;;10.02;7.43;;;;;;;;;;5094443;28;20199;-69
2021/09/27 14:36:12;;;;;;;13.13;8.70;;;;;;;;;;5095075;28;20016;-69
2021/09/27 14:38:38;;;;;;;9.13;7.60;;;;;;;;;;5077045;28;20032;-69
2021/09/27 14:41:04;;;;;;;9.43;7.72;;;;;;;;;;5076973;28;20110;-68
2021/09/27 14:43:30;;;;;;;10.73;7.43;;;;;;;;;;5094830;28;20107;-69
2021/09/27 14:45:56;;;;;;;8.40;6.78;;;;;;;;;;5094783;28;20024;-69
2021/09/27 14:48:22;;;;;;;8.40;7.32;;;;;;;;;;5094816;28;20039;-69
2021/09/27 14:50:52;;;;;;;10.23;7.95;;;;;;;;;;5095029;28;20379;-69
2021/09/27 14:53:21;;;;;;;10.95;7.93;;;;;;;;;;5094552;28;20047;-62